Time;durP1;ratioP1;P1;durP2;ratioP2;P2;SDS_P1;SDS_P2;PMS_P1;PMS_P2;Temp;Humidity;BMP_temperature;BMP_pressure;BME280_temperature;BME280_humidity;BME280_pressure;Samples;Min_cycle;Max_cycle;Signal;HPM_P1;HPM_P2
2020/12/05 00:01:04;;;;;;;7.32;2.63;;;2.60;99.90;;;;;;5058773;28;20102;-86
2020/12/05 00:03:32;;;;;;;13.70;2.87;;;2.70;99.90;;;;;;5073720;28;20048;-86
2020/12/05 00:05:59;;;;;;;8.73;2.23;;;2.70;99.90;;;;;;5059129;28;20311;-86
2020/12/05 00:08:26;;;;;;;9.45;2.38;;;2.80;99.90;;;;;;5060339;28;20295;-87
2020/12/05 00:10:53;;;;;;;9.73;2.50;;;2.80;99.90;;;;;;5058107;28;20422;-86
2020/12/05 00:13:20;;;;;;;11.32;2.53;;;2.80;99.90;;;;;;5063744;28;20048;-86
2020/12/05 00:15:48;;;;;;;7.05;2.13;;;2.90;99.90;;;;;;5057836;28;20136;-86
2020/12/05 00:18:14;;;;;;;6.85;2.10;;;2.90;99.90;;;;;;5042977;28;20070;-86
2020/12/05 00:20:41;;;;;;;7.88;2.45;;;2.90;99.90;;;;;;5071247;28;20064;-86
2020/12/05 00:23:08;;;;;;;9.63;2.50;;;2.90;99.90;;;;;;5058083;28;20532;-86
2020/12/05 00:25:35;;;;;;;12.02;2.45;;;2.90;99.90;;;;;;5063194;28;20541;-86
2020/12/05 00:28:03;;;;;;;8.55;2.47;;;3.00;99.90;;;;;;5060886;28;20095;-86
2020/12/05 00:30:29;;;;;;;8.07;2.30;;;3.00;99.90;;;;;;5072043;28;20048;-86
2020/12/05 00:32:58;;;;;;;8.75;2.13;;;3.00;99.90;;;;;;5074624;28;20055;-86
2020/12/05 00:35:25;;;;;;;15.02;2.38;;;3.00;99.90;;;;;;5059845;28;20053;-86
2020/12/05 00:37:52;;;;;;;27.13;4.05;;;3.00;99.90;;;;;;5057165;28;20387;-86
2020/12/05 00:40:19;;;;;;;12.10;2.38;;;3.00;99.90;;;;;;5063369;28;20051;-86
2020/12/05 00:42:46;;;;;;;10.82;2.47;;;3.10;99.90;;;;;;5062992;28;20051;-86
2020/12/05 00:45:13;;;;;;;8.48;2.20;;;3.10;99.90;;;;;;5057955;28;20037;-86
2020/12/05 00:47:40;;;;;;;8.25;1.92;;;3.10;99.90;;;;;;5070547;28;20600;-86
2020/12/05 00:50:11;;;;;;;12.85;2.25;;;3.10;99.90;;;;;;5057904;28;20438;-86
2020/12/05 00:52:38;;;;;;;10.93;1.92;;;3.10;99.90;;;;;;5063191;28;20053;-86
2020/12/05 00:55:05;;;;;;;11.32;2.33;;;3.20;99.90;;;;;;5059519;28;20053;-86
2020/12/05 00:57:32;;;;;;;11.38;2.40;;;3.20;99.90;;;;;;5071627;28;20045;-86
2020/12/05 00:59:59;;;;;;;7.93;1.98;;;3.30;99.90;;;;;;5074581;28;20056;-85
2020/12/05 01:02:26;;;;;;;18.95;3.08;;;3.30;99.90;;;;;;5056131;28;20075;-86
2020/12/05 01:04:53;;;;;;;7.82;2.53;;;3.30;99.90;;;;;;5060177;28;20163;-86
2020/12/05 01:07:25;;;;;;;7.60;2.15;;;3.30;99.90;;;;;;5064490;28;20390;-86
2020/12/05 01:09:53;;;;;;;6.63;2.40;;;3.40;99.90;;;;;;5069671;28;20391;-86
2020/12/05 01:12:20;;;;;;;6.97;1.85;;;3.40;99.90;;;;;;5074048;28;20099;-86
2020/12/05 01:14:48;;;;;;;9.13;2.22;;;3.40;99.90;;;;;;5057837;28;20498;-86
2020/12/05 01:17:15;;;;;;;15.00;2.97;;;3.40;99.90;;;;;;5062038;28;20471;-86
2020/12/05 01:19:42;;;;;;;9.43;2.40;;;3.40;99.90;;;;;;5056746;28;20045;-86
2020/12/05 01:22:09;;;;;;;10.38;2.63;;;3.40;99.90;;;;;;5062156;28;20053;-86
2020/12/05 01:24:36;;;;;;;10.85;2.40;;;3.50;99.90;;;;;;5059651;28;20056;-86
2020/12/05 01:27:03;;;;;;;10.75;2.90;;;3.50;99.90;;;;;;5057728;28;20375;-86
2020/12/05 01:29:29;;;;;;;9.00;2.50;;;3.50;99.90;;;;;;5074128;28;20060;-86
2020/12/05 01:31:57;;;;;;;9.40;2.47;;;3.50;99.90;;;;;;5058236;28;20128;-86
2020/12/05 01:34:23;;;;;;;11.80;3.70;;;3.50;99.90;;;;;;5062345;28;20084;-86
2020/12/05 01:36:50;;;;;;;11.75;2.80;;;3.50;99.90;;;;;;5062128;28;20443;-86
2020/12/05 01:39:17;;;;;;;12.43;2.67;;;3.50;99.90;;;;;;5056412;28;20049;-85
2020/12/05 01:41:45;;;;;;;10.40;2.90;;;3.50;99.90;;;;;;5058129;28;20061;-86
2020/12/05 01:44:11;;;;;;;7.10;2.20;;;3.50;99.90;;;;;;5068877;28;20059;-86
2020/12/05 01:46:41;;;;;;;9.63;2.60;;;3.50;99.90;;;;;;5070234;28;20045;-86
2020/12/05 01:49:15;;;;;;;8.95;2.30;;;3.50;99.90;;;;;;5070432;28;20060;-86
2020/12/05 01:51:44;;;;;;;5.68;2.50;;;3.60;99.90;;;;;;5073251;28;20394;-86
2020/12/05 01:54:12;;;;;;;9.10;2.40;;;3.60;99.90;;;;;;5057125;28;20098;-86
2020/12/05 01:56:41;;;;;;;13.17;2.53;;;3.60;99.90;;;;;;5058720;28;20387;-86
2020/12/05 01:59:09;;;;;;;10.30;2.42;;;3.60;99.90;;;;;;5061568;28;20303;-86
2020/12/05 02:01:36;;;;;;;8.90;2.80;;;3.60;99.90;;;;;;5060680;28;20048;-86
2020/12/05 02:04:03;;;;;;;6.82;2.25;;;3.60;99.90;;;;;;5066959;28;20107;-86
2020/12/05 02:06:33;;;;;;;10.85;2.25;;;3.60;99.90;;;;;;5070929;28;20098;-86
2020/12/05 02:09:08;;;;;;;11.18;2.65;;;3.60;99.90;;;;;;5070695;28;20053;-86
2020/12/05 02:11:45;;;;;;;9.60;2.40;;;3.60;99.90;;;;;;5072201;28;20098;-86
2020/12/05 02:14:16;;;;;;;10.45;2.20;;;3.60;99.90;;;;;;5060742;28;20049;-86
2020/12/05 02:16:43;;;;;;;8.77;2.50;;;3.60;99.90;;;;;;5061067;28;20119;-86
2020/12/05 02:19:16;;;;;;;9.15;2.25;;;3.60;99.90;;;;;;5061155;28;20045;-86
2020/12/05 02:21:45;;;;;;;12.57;1.92;;;3.70;99.90;;;;;;5060073;28;20074;-86
2020/12/05 02:24:14;;;;;;;7.13;1.88;;;3.70;99.90;;;;;;5056410;28;20052;-86
2020/12/05 02:26:44;;;;;;;6.85;2.00;;;3.70;99.90;;;;;;5073111;28;20062;-86
2020/12/05 02:29:11;;;;;;;9.73;1.80;;;3.80;99.90;;;;;;5055876;28;20434;-86
2020/12/05 02:31:39;;;;;;;7.82;1.98;;;3.80;99.90;;;;;;5061235;28;20385;-85
2020/12/05 02:34:06;;;;;;;6.35;2.10;;;3.80;99.90;;;;;;5060673;28;20087;-86
2020/12/05 02:36:37;;;;;;;11.15;1.70;;;3.90;99.90;;;;;;5057132;28;20482;-86
2020/12/05 02:39:09;;;;;;;8.05;1.75;;;3.90;99.90;;;;;;5056390;28;20064;-86
2020/12/05 02:41:38;;;;;;;8.27;1.58;;;3.90;99.90;;;;;;5057708;28;20483;-86
2020/12/05 02:44:05;;;;;;;8.27;1.50;;;4.00;99.90;;;;;;5060528;28;20056;-87
2020/12/05 02:46:33;;;;;;;8.38;1.60;;;4.00;99.90;;;;;;5054780;28;20415;-86
2020/12/05 02:49:00;;;;;;;6.43;2.37;;;4.00;99.90;;;;;;5060445;28;20040;-86
2020/12/05 02:51:27;;;;;;;6.25;1.65;;;4.10;99.90;;;;;;5056752;28;20307;-86
2020/12/05 02:53:57;;;;;;;9.57;1.13;;;4.20;99.90;;;;;;5055845;28;20548;-87
2020/12/05 02:56:24;;;;;;;3.63;0.82;;;4.30;99.90;;;;;;5059234;28;20064;-87
2020/12/05 02:58:51;;;;;;;4.00;0.93;;;4.40;99.90;;;;;;5060290;28;20055;-87
2020/12/05 03:01:18;;;;;;;3.75;0.82;;;4.40;99.90;;;;;;5057576;28;20045;-86
2020/12/05 03:03:45;;;;;;;5.13;0.95;;;4.50;99.90;;;;;;5068954;28;20053;-85
2020/12/05 03:06:12;;;;;;;4.32;0.70;;;4.60;99.90;;;;;;5071917;28;20139;-87
2020/12/05 03:08:39;;;;;;;2.60;0.50;;;4.70;99.90;;;;;;5068293;28;20098;-87
2020/12/05 03:11:06;;;;;;;4.53;1.10;;;4.80;99.90;;;;;;5055284;28;20061;-87
2020/12/05 03:13:33;;;;;;;7.78;0.80;;;4.90;99.90;;;;;;5060617;28;20049;-87
2020/12/05 03:16:00;;;;;;;4.78;0.57;;;5.00;99.90;;;;;;5056527;28;20052;-87
2020/12/05 03:18:27;;;;;;;4.82;0.63;;;5.10;99.90;;;;;;5069043;28;20049;-87
2020/12/05 03:20:55;;;;;;;12.40;0.98;;;5.20;99.90;;;;;;5071940;28;20139;-86
2020/12/05 03:23:22;;;;;;;3.95;0.60;;;5.20;99.90;;;;;;5059510;28;20134;-86
2020/12/05 03:25:49;;;;;;;4.72;0.50;;;5.30;99.90;;;;;;5054094;28;20090;-86
2020/12/05 03:28:16;;;;;;;4.70;0.40;;;5.40;99.90;;;;;;5060088;28;20051;-86
2020/12/05 03:30:43;;;;;;;3.92;0.57;;;5.40;99.90;;;;;;5054604;28;20047;-86
2020/12/05 03:33:12;;;;;;;2.85;0.52;;;5.40;99.90;;;;;;5071175;28;20054;-86
2020/12/05 03:35:39;;;;;;;3.03;0.45;;;5.50;99.90;;;;;;5070965;28;20044;-86
2020/12/05 03:38:07;;;;;;;7.18;0.70;;;5.50;99.90;;;;;;5058620;28;20057;-86
2020/12/05 03:40:37;;;;;;;4.47;0.60;;;5.50;99.90;;;;;;5064086;28;20048;-86
2020/12/05 03:43:05;;;;;;;3.75;0.77;;;5.50;99.90;;;;;;5063393;28;20044;-87
2020/12/05 03:45:32;;;;;;;5.45;1.38;;;5.50;99.90;;;;;;5072701;28;20394;-86
2020/12/05 03:47:59;;;;;;;2.28;0.38;;;5.50;99.90;;;;;;5075683;28;20051;-87
2020/12/05 03:50:26;;;;;;;3.03;0.60;;;5.50;99.90;;;;;;5060628;28;20060;-86
2020/12/05 03:52:53;;;;;;;3.10;0.82;;;5.50;99.90;;;;;;5064177;28;20048;-86
2020/12/05 03:55:21;;;;;;;5.18;0.52;;;5.60;99.90;;;;;;5057800;28;20055;-87
2020/12/05 03:57:47;;;;;;;5.00;0.43;;;5.60;99.90;;;;;;5063890;28;20056;-87
2020/12/05 04:00:14;;;;;;;4.28;0.63;;;5.60;99.90;;;;;;5058144;28;20052;-86
2020/12/05 04:02:41;;;;;;;6.13;0.57;;;5.60;99.90;;;;;;5059450;28;20063;-86
2020/12/05 04:05:08;;;;;;;5.72;0.70;;;5.60;99.90;;;;;;5058483;28;20076;-86
2020/12/05 04:07:35;;;;;;;3.45;0.57;;;5.60;99.90;;;;;;5064077;28;20056;-87
2020/12/05 04:10:03;;;;;;;6.05;0.65;;;5.60;99.90;;;;;;5059580;28;20049;-86
2020/12/05 04:12:30;;;;;;;8.77;0.70;;;5.60;99.90;;;;;;5073501;28;20053;-87
2020/12/05 04:14:57;;;;;;;5.93;0.93;;;5.70;99.90;;;;;;5072528;28;20060;-86
2020/12/05 04:17:24;;;;;;;8.40;0.80;;;5.70;99.90;;;;;;5062445;28;20438;-86
2020/12/05 04:19:51;;;;;;;7.22;0.88;;;5.70;99.90;;;;;;5063797;28;20102;-86
2020/12/05 04:22:18;;;;;;;3.58;1.00;;;5.70;99.90;;;;;;5064749;28;20052;-86
2020/12/05 04:24:45;;;;;;;6.43;1.27;;;5.80;99.90;;;;;;5071911;28;20140;-86
2020/12/05 04:27:12;;;;;;;5.55;1.00;;;5.80;99.90;;;;;;5074511;28;20494;-86
2020/12/05 04:29:39;;;;;;;9.77;1.00;;;5.80;99.90;;;;;;5060467;28;20099;-86
2020/12/05 04:32:06;;;;;;;8.82;1.17;;;5.80;99.90;;;;;;5063176;28;20053;-86
2020/12/05 04:34:33;;;;;;;6.25;0.85;;;5.90;99.90;;;;;;5057726;28;20107;-86
2020/12/05 04:37:00;;;;;;;4.05;0.70;;;6.00;99.90;;;;;;5063057;28;20071;-87
2020/12/05 04:39:26;;;;;;;3.75;0.68;;;6.00;99.90;;;;;;5058665;28;20493;-87
2020/12/05 04:41:53;;;;;;;5.82;1.30;;;6.00;99.90;;;;;;5058500;28;20520;-87
2020/12/05 04:44:20;;;;;;;4.80;1.02;;;6.10;99.90;;;;;;5062472;28;20057;-87
2020/12/05 04:46:49;;;;;;;5.60;0.95;;;6.20;99.90;;;;;;5062180;28;20455;-87
2020/12/05 04:49:16;;;;;;;5.75;0.77;;;6.20;99.90;;;;;;5063112;28;20045;-86
2020/12/05 04:51:49;;;;;;;2.67;0.57;;;6.20;99.90;;;;;;5057050;28;20049;-87
2020/12/05 04:54:25;;;;;;;5.30;0.70;;;6.30;99.90;;;;;;5058885;28;20047;-87
2020/12/05 04:56:56;;;;;;;3.92;0.90;;;6.30;99.90;;;;;;5071801;28;20116;-87
2020/12/05 04:59:24;;;;;;;3.25;0.80;;;6.30;99.90;;;;;;5061730;28;20049;-87
2020/12/05 05:01:53;;;;;;;4.05;0.60;;;6.30;99.90;;;;;;5056871;28;20414;-86
2020/12/05 05:04:20;;;;;;;2.28;0.52;;;6.40;99.90;;;;;;5057083;28;20052;-87
2020/12/05 05:06:47;;;;;;;2.47;0.60;;;6.40;99.90;;;;;;5068261;28;20048;-87
2020/12/05 05:09:13;;;;;;;4.30;0.95;;;6.40;99.90;;;;;;5074046;28;20052;-86
2020/12/05 05:11:54;;;;;;;2.70;1.08;;;6.40;99.90;;;;;;5071863;28;20060;-87
2020/12/05 05:14:31;;;;;;;5.20;0.90;;;6.40;99.90;;;;;;5055951;28;20063;-87
2020/12/05 05:17:07;;;;;;;4.43;0.70;;;6.40;99.90;;;;;;5069534;28;20099;-87
2020/12/05 05:19:35;;;;;;;5.55;1.20;;;6.50;99.90;;;;;;5062092;28;20133;-87
2020/12/05 05:22:03;;;;;;;5.35;1.00;;;6.50;99.90;;;;;;5062538;28;20058;-87
2020/12/05 05:24:30;;;;;;;8.05;1.90;;;6.50;99.90;;;;;;5058821;28;20052;-87
2020/12/05 05:27:00;;;;;;;5.72;1.02;;;6.60;99.90;;;;;;5057611;28;20060;-87
2020/12/05 05:29:32;;;;;;;7.97;1.15;;;6.60;99.90;;;;;;5070069;28;20505;-87
2020/12/05 05:32:07;;;;;;;4.60;1.00;;;6.60;99.90;;;;;;5057961;28;20045;-87
2020/12/05 05:34:34;;;;;;;5.63;1.10;;;6.60;99.90;;;;;;5062005;28;20041;-87
2020/12/05 05:37:01;;;;;;;6.35;1.20;;;6.70;99.90;;;;;;5061591;28;20060;-86
2020/12/05 05:39:29;;;;;;;7.00;0.95;;;6.70;99.90;;;;;;5056699;28;20045;-87
2020/12/05 05:41:56;;;;;;;7.53;1.23;;;6.70;99.90;;;;;;5073779;28;20057;-87
2020/12/05 05:44:27;;;;;;;8.90;1.20;;;6.70;99.90;;;;;;5069637;28;20056;-87
2020/12/05 05:46:55;;;;;;;7.78;1.00;;;6.70;99.90;;;;;;5058093;28;20083;-86
2020/12/05 05:49:32;;;;;;;8.05;1.80;;;6.70;99.90;;;;;;5061846;28;20119;-87
2020/12/05 05:52:00;;;;;;;9.05;1.30;;;6.70;99.90;;;;;;5061590;28;20094;-87
2020/12/05 05:54:34;;;;;;;10.20;1.63;;;6.70;99.90;;;;;;5058618;28;20485;-87
2020/12/05 05:57:05;;;;;;;8.40;1.42;;;6.70;99.90;;;;;;5056558;28;20052;-87
2020/12/05 05:59:50;;;;;;;11.95;1.60;;;6.80;99.90;;;;;;5089059;28;20363;-87
2020/12/05 06:02:17;;;;;;;12.05;1.75;;;6.80;99.90;;;;;;5054448;28;20068;-87
2020/12/05 06:04:46;;;;;;;14.02;2.00;;;6.90;99.90;;;;;;5057900;28;20048;-87
2020/12/05 06:07:15;;;;;;;9.70;1.70;;;6.90;99.90;;;;;;5061292;28;20056;-87
2020/12/05 06:09:44;;;;;;;9.27;1.92;;;7.00;99.90;;;;;;5060594;28;20122;-86
2020/12/05 06:12:18;;;;;;;17.42;2.03;;;7.00;99.90;;;;;;5056911;28;20052;-87
2020/12/05 06:14:47;;;;;;;12.70;1.85;;;7.10;99.90;;;;;;5069531;28;20048;-87
2020/12/05 06:17:16;;;;;;;11.95;2.28;;;7.10;99.90;;;;;;5069558;28;20106;-86
2020/12/05 06:19:44;;;;;;;14.18;2.20;;;7.20;99.90;;;;;;5065094;28;20061;-87
2020/12/05 06:22:22;;;;;;;9.93;2.05;;;7.20;99.90;;;;;;5060191;28;20048;-87
2020/12/05 06:24:51;;;;;;;10.65;2.30;;;7.20;99.90;;;;;;5066567;28;20128;-87
2020/12/05 06:27:20;;;;;;;13.95;1.60;;;7.20;99.90;;;;;;5072372;28;20052;-87
2020/12/05 06:29:47;;;;;;;;;;;7.30;99.90;;;;;;5069852;28;20108;-86
2020/12/05 06:32:37;;;;;;;14.98;2.10;;;7.20;99.90;;;;;;5060552;28;19924;-87
2020/12/05 06:35:23;;;;;;;13.73;2.80;;;7.20;99.90;;;;;;5060779;28;20056;-86
2020/12/05 06:37:52;;;;;;;8.90;1.98;;;7.20;99.90;;;;;;5060845;28;20475;-86
2020/12/05 06:40:20;;;;;;;17.35;2.40;;;7.20;99.90;;;;;;5061024;28;20041;-87
2020/12/05 06:42:57;;;;;;;14.07;1.92;;;7.20;99.90;;;;;;5061100;28;20198;-87
2020/12/05 06:45:26;;;;;;;15.88;2.33;;;7.20;99.90;;;;;;5056552;28;20063;-86
2020/12/05 06:48:09;;;;;;;7.93;1.20;;;7.20;99.90;;;;;;5069845;28;20087;-86
2020/12/05 06:50:38;;;;;;;5.13;1.05;;;7.20;99.90;;;;;;5057382;28;20055;-86
2020/12/05 06:53:19;;;;;;;5.90;1.20;;;7.20;99.90;;;;;;5060778;28;20061;-86
2020/12/05 06:55:50;;;;;;;5.95;1.02;;;7.10;99.90;;;;;;5060854;28;20061;-86
2020/12/05 06:58:31;;;;;;;5.90;1.30;;;7.10;99.90;;;;;;5060866;28;20053;-86
2020/12/05 07:00:58;;;;;;;8.15;1.13;;;7.10;99.90;;;;;;5065019;28;20048;-86
2020/12/05 07:03:30;;;;;;;8.73;1.02;;;7.10;99.90;;;;;;5041132;28;20115;-86
2020/12/05 07:05:58;;;;;;;9.27;1.45;;;7.10;99.90;;;;;;5055641;28;20057;-87
2020/12/05 07:08:37;;;;;;;8.32;1.23;;;7.00;99.90;;;;;;5059156;28;20052;-86
2020/12/05 07:11:15;;;;;;;9.50;1.10;;;7.00;99.90;;;;;;5060372;28;20060;-87
2020/12/05 07:13:49;;;;;;;7.85;1.30;;;7.00;99.90;;;;;;5060586;28;20103;-86
2020/12/05 07:16:23;;;;;;;12.25;1.63;;;7.00;99.90;;;;;;5060183;28;20398;-86
2020/12/05 07:18:58;;;;;;;11.95;1.85;;;7.00;99.90;;;;;;5060208;28;20053;-86
2020/12/05 07:21:27;;;;;;;10.05;1.85;;;7.00;99.90;;;;;;5057273;28;20056;-87
2020/12/05 07:23:55;;;;;;;9.13;1.52;;;7.10;99.90;;;;;;5055911;28;20049;-87
2020/12/05 07:26:23;;;;;;;8.77;1.70;;;7.10;99.90;;;;;;5059492;28;20057;-87
2020/12/05 07:28:57;;;;;;;10.60;3.03;;;7.20;99.90;;;;;;5060074;28;20386;-86
2020/12/05 07:31:24;;;;;;;9.48;1.70;;;7.20;99.90;;;;;;5054145;28;20045;-86
2020/12/05 07:33:53;;;;;;;11.02;2.20;;;7.20;99.90;;;;;;5060628;28;20044;-86
2020/12/05 07:36:20;;;;;;;17.40;1.98;;;7.20;99.90;;;;;;5055484;28;20043;-86
2020/12/05 07:38:47;;;;;;;18.58;3.05;;;7.20;99.90;;;;;;5068482;28;20056;-86
2020/12/05 07:41:17;;;;;;;11.85;2.42;;;7.10;99.90;;;;;;5070742;28;20052;-86
2020/12/05 07:43:44;;;;;;;13.43;2.33;;;7.20;99.90;;;;;;5067017;28;20086;-86
2020/12/05 07:46:15;;;;;;;11.70;2.05;;;7.10;99.90;;;;;;5065784;28;20090;-87
2020/12/05 07:48:42;;;;;;;10.30;2.20;;;7.20;99.90;;;;;;5071558;28;20044;-86
2020/12/05 07:51:15;;;;;;;13.02;2.08;;;7.20;99.90;;;;;;5055643;28;20064;-87
2020/12/05 07:53:44;;;;;;;12.27;2.38;;;7.20;99.90;;;;;;5056705;28;20041;-87
2020/12/05 07:56:19;;;;;;;16.65;2.67;;;7.20;99.90;;;;;;5059653;28;20493;-86
2020/12/05 07:58:57;;;;;;;8.18;2.42;;;7.20;99.90;;;;;;5059683;28;20041;-86
2020/12/05 08:01:29;;;;;;;15.00;2.17;;;7.20;99.90;;;;;;5058316;28;20056;-86
2020/12/05 08:04:25;;;;;;;12.02;3.85;;;7.20;99.90;;;;;;5069972;28;20041;-86
2020/12/05 08:07:05;;;;;;;17.95;6.88;;;7.20;99.90;;;;;;5059269;28;20057;-86
2020/12/05 08:09:38;;;;;;;11.52;2.17;;;7.20;99.90;;;;;;5057506;28;20045;-87
2020/12/05 08:12:12;;;;;;;13.75;1.73;;;7.20;99.90;;;;;;5055180;28;20094;-89
2020/12/05 08:14:44;;;;;;;33.80;11.10;;;7.20;99.90;;;;;;5056963;28;20056;-86
2020/12/05 08:17:11;;;;;;;37.65;13.25;;;7.20;99.90;;;;;;5066457;28;20063;-88
2020/12/05 08:19:42;;;;;;;14.98;3.88;;;7.20;99.90;;;;;;5066556;28;20071;-86
2020/12/05 08:22:09;;;;;;;17.50;3.63;;;7.20;99.90;;;;;;5071728;28;20156;-88
2020/12/05 08:24:54;;;;;;;16.48;3.03;;;7.20;99.90;;;;;;5071733;28;20045;-86
2020/12/05 08:27:21;;;;;;;13.57;2.20;;;7.20;99.90;;;;;;5071881;28;20437;-86
2020/12/05 08:29:49;;;;;;;13.45;2.67;;;7.20;99.90;;;;;;5069240;28;20119;-86
2020/12/05 08:32:21;;;;;;;11.77;2.08;;;7.20;99.90;;;;;;5068837;28;20057;-87
2020/12/05 08:34:49;;;;;;;12.98;3.22;;;7.20;99.90;;;;;;5070279;28;20060;-86
2020/12/05 08:37:23;;;;;;;12.45;2.25;;;7.30;99.90;;;;;;5067653;28;20099;-86
2020/12/05 08:39:53;;;;;;;20.63;3.30;;;7.20;99.90;;;;;;5070200;28;20041;-86
2020/12/05 08:42:21;;;;;;;16.35;3.40;;;7.20;99.90;;;;;;5070273;28;20119;-86
2020/12/05 08:44:48;;;;;;;19.88;3.35;;;7.30;99.90;;;;;;5072136;28;20119;-87
2020/12/05 08:47:15;;;;;;;15.52;2.97;;;7.30;99.90;;;;;;5065083;28;20056;-86
2020/12/05 08:49:44;;;;;;;21.27;3.88;;;7.40;99.90;;;;;;5070521;28;20417;-86
2020/12/05 08:52:11;;;;;;;;;;;7.40;99.90;;;;;;5068483;28;20127;-86
2020/12/05 08:54:47;;;;;;;20.77;3.38;;;7.40;99.90;;;;;;5088010;28;20520;-86
2020/12/05 08:57:14;;;;;;;20.77;2.88;;;7.50;99.90;;;;;;5066592;28;20064;-86
2020/12/05 08:59:42;;;;;;;12.65;2.55;;;7.50;99.90;;;;;;5072456;28;20060;-86
2020/12/05 09:02:11;;;;;;;17.13;2.67;;;7.50;99.90;;;;;;5066784;28;20059;-86
2020/12/05 09:04:38;;;;;;;28.17;3.30;;;7.50;99.90;;;;;;5069170;28;20485;-86
2020/12/05 09:07:17;;;;;;;14.65;2.42;;;7.50;99.90;;;;;;5070989;28;20052;-86
2020/12/05 09:09:46;;;;;;;15.32;3.28;;;7.60;99.90;;;;;;5067378;28;20052;-86
2020/12/05 09:12:17;;;;;;;17.35;2.83;;;7.70;99.90;;;;;;5070746;28;20084;-86
2020/12/05 09:14:50;;;;;;;17.08;2.63;;;7.70;99.90;;;;;;5072182;28;20091;-86
2020/12/05 09:17:27;;;;;;;16.50;2.70;;;7.90;99.90;;;;;;5070118;28;20118;-87
2020/12/05 09:20:13;;;;;;;19.15;2.50;;;7.90;99.90;;;;;;5064258;28;20474;-86
2020/12/05 09:22:49;;;;;;;16.52;2.55;;;8.00;99.90;;;;;;5061564;28;20055;-86
2020/12/05 09:25:34;;;;;;;16.13;2.20;;;8.00;99.90;;;;;;5066742;28;20045;-86
2020/12/05 09:28:06;;;;;;;10.80;2.92;;;8.00;99.90;;;;;;5063662;28;20044;-86
2020/12/05 09:30:33;;;;;;;11.15;2.45;;;7.90;99.90;;;;;;5069607;28;20049;-86
2020/12/05 09:33:08;;;;;;;15.38;2.70;;;7.90;99.90;;;;;;5066924;28;20053;-88
2020/12/05 09:35:36;;;;;;;14.40;2.00;;;7.90;99.90;;;;;;5066135;28;20052;-86
2020/12/05 09:38:03;;;;;;;12.43;2.35;;;7.80;99.90;;;;;;5067946;28;20060;-85
2020/12/05 09:40:31;;;;;;;13.02;2.20;;;7.70;99.90;;;;;;5065862;28;20131;-87
2020/12/05 09:43:00;;;;;;;13.75;2.45;;;7.80;99.90;;;;;;5064294;28;20392;-85
2020/12/05 09:45:27;;;;;;;11.27;1.90;;;7.70;99.90;;;;;;5069089;28;20045;-87
2020/12/05 09:47:54;;;;;;;14.85;2.45;;;7.70;99.90;;;;;;5069436;28;20485;-86
2020/12/05 09:50:22;;;;;;;15.85;2.40;;;7.70;99.90;;;;;;5071992;28;20504;-86
2020/12/05 09:52:49;;;;;;;16.00;2.30;;;7.70;99.90;;;;;;5069908;28;20048;-88
2020/12/05 09:55:16;;;;;;;13.60;2.03;;;7.70;99.90;;;;;;5063596;28;20048;-87
2020/12/05 09:57:43;;;;;;;10.70;2.10;;;7.70;99.90;;;;;;5064617;28;20390;-87
2020/12/05 10:00:13;;;;;;;8.77;1.73;;;7.70;99.90;;;;;;5070032;28;20048;-87
2020/12/05 10:02:41;;;;;;;12.27;1.83;;;7.70;99.90;;;;;;5066063;28;20124;-86
2020/12/05 10:05:10;;;;;;;14.60;1.77;;;7.60;99.90;;;;;;5065929;28;20056;-88
2020/12/05 10:07:38;;;;;;;8.00;1.42;;;7.50;99.90;;;;;;5066956;28;20475;-88
2020/12/05 10:10:07;;;;;;;13.37;2.60;;;7.50;99.90;;;;;;5064885;28;20049;-88
2020/12/05 10:12:35;;;;;;;10.32;1.58;;;7.40;99.90;;;;;;5064397;28;20057;-89
2020/12/05 10:15:04;;;;;;;11.80;2.38;;;7.40;99.90;;;;;;5068174;28;20128;-88
2020/12/05 10:17:33;;;;;;;12.43;2.20;;;7.40;99.90;;;;;;5067785;28;20474;-89
2020/12/05 10:20:00;;;;;;;9.45;2.25;;;7.50;99.90;;;;;;5067505;28;20496;-88
2020/12/05 10:22:27;;;;;;;18.25;2.95;;;7.50;99.90;;;;;;5062870;28;20049;-88
2020/12/05 10:24:54;;;;;;;9.43;1.85;;;7.50;99.90;;;;;;5056447;28;20049;-88
2020/12/05 10:27:21;;;;;;;10.68;2.42;;;7.70;99.90;;;;;;5055072;28;20045;-89
2020/12/05 10:29:48;;;;;;;10.57;1.88;;;7.80;99.90;;;;;;5063345;28;20045;-88
2020/12/05 10:32:15;;;;;;;16.70;2.30;;;7.80;99.90;;;;;;5063426;28;20445;-90
2020/12/05 10:34:42;;;;;;;16.25;2.47;;;7.90;99.90;;;;;;5053168;28;20049;-88
2020/12/05 10:37:10;;;;;;;16.25;3.20;;;7.90;99.90;;;;;;5056990;28;20052;-89
2020/12/05 10:39:37;;;;;;;14.43;3.97;;;7.90;99.90;;;;;;5058960;28;20495;-87
2020/12/05 10:42:03;;;;;;;18.02;3.15;;;7.90;99.90;;;;;;5063070;28;20084;-87
2020/12/05 10:44:30;;;;;;;23.13;5.88;;;7.90;99.90;;;;;;5042626;28;20056;-87
2020/12/05 10:46:58;;;;;;;13.18;3.22;;;8.00;99.90;;;;;;5057726;28;20076;-87
2020/12/05 10:49:28;;;;;;;18.90;2.45;;;8.10;99.90;;;;;;5065186;28;20599;-86
2020/12/05 10:51:55;;;;;;;16.27;3.03;;;8.20;99.90;;;;;;5059227;28;20052;-86
2020/12/05 10:54:22;;;;;;;19.40;2.75;;;8.30;99.90;;;;;;5057708;28;20053;-87
2020/12/05 10:56:48;;;;;;;17.15;3.28;;;8.40;99.90;;;;;;5067988;28;20452;-87
2020/12/05 10:59:15;;;;;;;13.75;3.30;;;8.30;99.90;;;;;;5055883;28;20053;-87
2020/12/05 11:01:42;;;;;;;12.68;2.20;;;8.30;99.90;;;;;;5059572;28;20435;-87
2020/12/05 11:04:09;;;;;;;13.50;3.55;;;8.30;99.90;;;;;;5061107;28;20533;-87
2020/12/05 11:06:36;;;;;;;14.90;3.95;;;8.30;99.90;;;;;;5063026;28;20044;-88
2020/12/05 11:09:03;;;;;;;9.95;2.38;;;8.40;99.90;;;;;;5062553;28;20091;-88
2020/12/05 11:11:30;;;;;;;14.75;3.30;;;8.40;99.90;;;;;;5059764;28;20044;-88
2020/12/05 11:13:57;;;;;;;19.17;2.97;;;8.50;99.90;;;;;;5062145;28;20482;-87
2020/12/05 11:16:24;;;;;;;13.40;3.15;;;8.60;99.90;;;;;;5058454;28;20431;-88
2020/12/05 11:18:53;;;;;;;13.50;3.10;;;8.70;99.90;;;;;;5062487;28;20048;-88
2020/12/05 11:21:20;;;;;;;9.70;1.75;;;8.70;99.90;;;;;;5054768;28;20069;-87
2020/12/05 11:23:47;;;;;;;10.60;1.30;;;8.60;99.90;;;;;;5068736;28;20076;-87
2020/12/05 11:26:22;;;;;;;11.73;1.10;;;8.50;99.90;;;;;;5081125;28;20442;-88
2020/12/05 11:28:50;;;;;;;5.47;1.35;;;8.20;99.90;;;;;;5058938;28;20056;-89
2020/12/05 11:31:18;;;;;;;6.78;1.83;;;8.10;99.90;;;;;;5060480;28;20421;-88
2020/12/05 11:33:45;;;;;;;6.05;1.23;;;8.00;99.90;;;;;;5063209;28;20062;-88
2020/12/05 11:36:12;;;;;;;11.40;1.90;;;8.00;99.90;;;;;;5062821;28;20052;-89
2020/12/05 11:38:39;;;;;;;11.02;2.60;;;8.00;99.90;;;;;;5063078;28;20094;-91
2020/12/05 11:41:08;;;;;;;14.05;2.63;;;8.00;99.90;;;;;;5063455;28;20055;-87
2020/12/05 11:43:35;;;;;;;15.50;3.40;;;7.90;99.90;;;;;;5061522;28;20118;-87
2020/12/05 11:46:03;;;;;;;18.00;6.80;;;7.90;99.90;;;;;;5061243;28;20278;-86
2020/12/05 11:48:30;;;;;;;11.55;2.40;;;7.90;99.90;;;;;;5065640;28;20051;-87
2020/12/05 11:50:56;;;;;;;19.13;2.15;;;7.90;99.90;;;;;;5063730;28;20100;-86
2020/12/05 11:53:23;;;;;;;14.38;2.75;;;8.00;99.90;;;;;;5061589;28;20060;-87
2020/12/05 11:55:52;;;;;;;20.95;3.53;;;8.20;99.90;;;;;;5064065;28;20059;-87
2020/12/05 11:58:19;;;;;;;18.50;7.80;;;8.30;99.90;;;;;;5061598;28;20134;-86
2020/12/05 12:00:46;;;;;;;14.95;3.17;;;8.50;99.90;;;;;;5066950;28;20047;-89
2020/12/05 12:03:13;;;;;;;15.00;4.20;;;8.60;99.90;;;;;;5070042;28;20565;-86
2020/12/05 12:05:40;;;;;;;15.70;4.05;;;8.70;99.90;;;;;;5072992;28;20393;-86
2020/12/05 12:08:07;;;;;;;18.38;3.17;;;8.80;99.90;;;;;;5069423;28;20542;-86
2020/12/05 12:10:34;;;;;;;18.95;3.17;;;8.90;99.90;;;;;;5068924;28;20052;-86
2020/12/05 12:13:01;;;;;;;14.73;2.10;;;8.90;99.90;;;;;;5069817;28;20552;-86
2020/12/05 12:15:28;;;;;;;16.48;3.45;;;8.90;99.90;;;;;;5068171;28;20053;-86
2020/12/05 12:17:54;;;;;;;13.93;2.90;;;8.90;99.90;;;;;;5067960;28;20048;-86
2020/12/05 12:20:21;;;;;;;15.18;2.70;;;8.90;99.90;;;;;;5070800;28;20110;-87
2020/12/05 12:22:49;;;;;;;9.88;2.08;;;8.90;99.90;;;;;;5070137;28;20091;-87
2020/12/05 12:25:16;;;;;;;10.68;3.15;;;8.80;99.90;;;;;;5071479;28;20742;-86
2020/12/05 12:27:43;;;;;;;15.70;3.03;;;8.60;99.90;;;;;;5071344;28;20180;-86
2020/12/05 12:30:10;;;;;;;15.48;4.47;;;8.50;99.90;;;;;;5072057;28;20054;-86
2020/12/05 12:32:36;;;;;;;12.30;2.90;;;8.50;99.90;;;;;;5071465;28;20052;-87
2020/12/05 12:35:03;;;;;;;11.95;1.98;;;8.50;99.90;;;;;;5069347;28;20110;-86
2020/12/05 12:37:31;;;;;;;8.90;2.33;;;8.40;99.90;;;;;;5070378;28;20512;-87
2020/12/05 12:39:58;;;;;;;9.43;2.20;;;8.40;99.90;;;;;;5068734;28;20056;-86
2020/12/05 12:42:27;;;;;;;11.05;2.40;;;8.40;99.90;;;;;;5063126;28;20052;-85
2020/12/05 12:44:56;;;;;;;9.25;1.77;;;8.50;99.90;;;;;;5068526;28;20071;-86
2020/12/05 12:49:59;;;;;;;8.48;1.52;;;8.60;99.90;;;;;;5070823;28;20094;-86
2020/12/05 12:52:26;;;;;;;8.98;2.13;;;8.70;99.90;;;;;;5068666;28;20048;-87
2020/12/05 12:54:54;;;;;;;8.40;1.73;;;8.70;99.90;;;;;;5067963;28;20124;-86
2020/12/05 12:57:23;;;;;;;8.50;2.15;;;8.70;99.90;;;;;;5066207;28;20064;-86
2020/12/05 12:59:50;;;;;;;10.20;1.98;;;8.80;99.90;;;;;;5069008;28;20049;-86
2020/12/05 13:02:17;;;;;;;7.50;1.90;;;8.80;99.90;;;;;;5065478;28;20048;-86
2020/12/05 13:04:44;;;;;;;8.55;2.17;;;8.90;99.90;;;;;;5068810;28;20540;-88